Time;durP1;ratioP1;P1;durP2;ratioP2;P2;SDS_P1;SDS_P2;PMS_P1;PMS_P2;Temp;Humidity;BMP_temperature;BMP_pressure;BME280_temperature;BME280_humidity;BME280_pressure;Samples;Min_cycle;Max_cycle;Signal;HPM_P1;HPM_P2
2022/09/13 00:01:08;;;;;;;4.33;3.60;;;20.80;93.20;;;;;;5065154;28;20464;-84
2022/09/13 00:03:36;;;;;;;4.40;4.00;;;20.70;93.40;;;;;;5051073;28;20597;-84
2022/09/13 00:06:12;;;;;;;4.63;4.13;;;20.90;93.90;;;;;;5064135;28;20461;-83
2022/09/13 00:08:40;;;;;;;4.10;3.80;;;21.00;93.50;;;;;;5064455;28;20452;-83
2022/09/13 00:11:13;;;;;;;5.43;4.47;;;20.90;93.60;;;;;;5059247;28;20512;-80
2022/09/13 00:13:40;;;;;;;3.87;3.30;;;20.70;93.80;;;;;;5060814;28;20597;-85
2022/09/13 00:16:12;;;;;;;5.27;4.87;;;20.60;93.80;;;;;;5062894;28;20448;-84
2022/09/13 00:18:39;;;;;;;4.00;3.70;;;20.50;94.20;;;;;;5060974;28;20464;-84
2022/09/13 00:21:10;;;;;;;4.30;3.90;;;20.40;94.50;;;;;;5064505;28;20467;-84
2022/09/13 00:23:37;;;;;;;4.60;3.90;;;20.50;94.70;;;;;;5063837;28;20452;-85
2022/09/13 00:26:10;;;;;;;3.73;3.43;;;20.70;94.30;;;;;;5060570;28;21038;-84
2022/09/13 00:28:37;;;;;;;3.90;3.60;;;20.70;94.20;;;;;;5062959;28;20479;-84
2022/09/13 00:31:06;;;;;;;3.67;3.37;;;20.60;94.50;;;;;;5060222;28;20472;-84
2022/09/13 00:33:34;;;;;;;4.67;4.17;;;20.70;94.20;;;;;;5060396;28;20472;-84
2022/09/13 00:36:05;;;;;;;4.17;3.87;;;20.60;94.20;;;;;;5055820;28;21324;-85
2022/09/13 00:38:38;;;;;;;3.60;3.20;;;20.50;94.10;;;;;;5060378;28;20445;-83
2022/09/13 00:41:09;;;;;;;4.30;3.90;;;20.50;94.30;;;;;;5061589;28;20486;-84
2022/09/13 00:43:45;;;;;;;4.27;3.80;;;20.40;94.40;;;;;;5059738;28;21207;-84
2022/09/13 00:46:21;;;;;;;4.27;3.87;;;20.40;94.60;;;;;;5060236;28;20436;-84
2022/09/13 00:48:52;;;;;;;4.00;3.60;;;20.30;94.60;;;;;;5059527;28;20491;-84
2022/09/13 00:51:19;;;;;;;3.57;3.27;;;20.20;95.10;;;;;;5059532;28;20487;-84
2022/09/13 00:53:51;;;;;;;4.10;3.80;;;20.20;95.20;;;;;;5060833;28;20491;-84
2022/09/13 00:56:24;;;;;;;7.17;6.67;;;20.10;95.30;;;;;;5046036;28;20448;-84
2022/09/13 00:58:59;;;;;;;5.23;4.70;;;20.20;95.50;;;;;;5060872;28;21135;-84
2022/09/13 01:01:32;;;;;;;4.40;4.10;;;20.30;95.40;;;;;;5057058;28;20474;-85
2022/09/13 01:04:00;;;;;;;3.87;3.57;;;20.40;95.20;;;;;;5069761;28;20428;-85
2022/09/13 01:06:29;;;;;;;3.90;3.60;;;20.30;95.10;;;;;;5075467;28;20433;-85
2022/09/13 01:09:02;;;;;;;4.00;3.70;;;20.20;95.20;;;;;;5063545;28;20447;-84
2022/09/13 01:11:37;;;;;;;4.40;3.97;;;20.10;95.20;;;;;;5062386;28;20460;-84
2022/09/13 01:14:07;;;;;;;4.70;3.80;;;20.10;95.20;;;;;;5062524;28;20448;-84
2022/09/13 01:16:34;;;;;;;4.13;3.83;;;20.00;95.30;;;;;;5077314;28;20436;-84
2022/09/13 01:19:01;;;;;;;3.97;3.67;;;20.10;95.30;;;;;;5060965;28;20452;-84
2022/09/13 01:22:05;;;;;;;5.90;3.80;;;20.20;95.20;;;;;;5076582;28;20440;-83
2022/09/13 01:24:35;;;;;;;4.20;3.90;;;20.20;95.30;;;;;;5057987;28;20448;-83
2022/09/13 01:27:35;;;;;;;4.17;3.87;;;20.10;95.20;;;;;;5052472;28;20483;-85
2022/09/13 01:30:10;;;;;;;3.90;3.60;;;20.10;95.40;;;;;;5055508;28;20480;-84
2022/09/13 01:33:08;;;;;;;6.00;3.67;;;20.10;95.50;;;;;;5056732;28;20545;-84
2022/09/13 01:36:17;;;;;;;4.80;4.30;;;20.10;95.50;;;;;;5053849;28;20444;-84
2022/09/13 01:39:09;;;;;;;4.60;4.30;;;20.10;95.50;;;;;;5040745;28;20479;-84
2022/09/13 01:41:48;;;;;;;5.40;3.53;;;20.20;95.40;;;;;;5074316;28;21045;-85
2022/09/13 01:44:42;;;;;;;3.60;3.30;;;20.20;95.20;;;;;;5068949;28;20460;-84
2022/09/13 01:47:29;;;;;;;3.90;3.63;;;20.10;95.60;;;;;;5054740;28;20492;-83
2022/09/13 01:50:16;;;;;;;4.40;4.00;;;20.00;95.90;;;;;;5049185;28;20485;-84
2022/09/13 01:52:51;;;;;;;4.20;3.90;;;20.00;96.10;;;;;;5050415;28;20484;-83
2022/09/13 01:55:47;;;;;;;3.80;3.50;;;20.20;96.20;;;;;;5057465;28;20457;-84
2022/09/13 01:58:35;;;;;;;4.63;4.23;;;20.20;96.00;;;;;;5047605;28;20437;-84
2022/09/13 02:01:35;;;;;;;4.67;3.97;;;20.30;96.00;;;;;;5056890;28;20831;-84
2022/09/13 02:04:22;;;;;;;5.23;4.30;;;20.30;96.00;;;;;;5058376;28;20452;-83
2022/09/13 02:07:04;;;;;;;4.27;3.87;;;20.40;95.80;;;;;;5052399;28;20488;-83
2022/09/13 02:09:35;;;;;;;4.50;4.10;;;20.20;96.10;;;;;;5054758;28;20472;-84
2022/09/13 02:12:16;;;;;;;4.40;4.10;;;20.00;96.60;;;;;;5054136;28;21348;-85
2022/09/13 02:14:46;;;;;;;4.27;3.87;;;19.90;96.90;;;;;;5048667;28;20448;-83
2022/09/13 02:17:19;;;;;;;4.23;3.90;;;20.10;96.90;;;;;;5052388;28;20480;-83
2022/09/13 02:19:54;;;;;;;4.00;3.70;;;20.10;96.80;;;;;;5055759;28;20468;-84
2022/09/13 02:22:30;;;;;;;4.03;3.73;;;20.10;96.80;;;;;;5048939;28;20491;-83
2022/09/13 02:25:07;;;;;;;4.60;4.20;;;20.30;96.80;;;;;;5056043;28;20494;-84
2022/09/13 02:27:36;;;;;;;6.17;4.03;;;20.30;96.70;;;;;;5067512;28;20475;-83
2022/09/13 02:30:09;;;;;;;3.93;3.63;;;20.40;96.40;;;;;;5069719;28;21059;-83
2022/09/13 02:32:52;;;;;;;7.03;4.40;;;20.30;96.50;;;;;;5056762;28;21009;-85
2022/09/13 02:35:54;;;;;;;5.17;4.77;;;20.10;96.70;;;;;;5053127;28;20530;-83
2022/09/13 02:38:58;;;;;;;4.43;4.10;;;20.20;97.10;;;;;;5062835;28;20460;-84
2022/09/13 02:41:41;;;;;;;4.07;3.70;;;20.20;97.00;;;;;;5037009;28;20487;-84
2022/09/13 02:44:32;;;;;;;4.63;4.23;;;20.10;96.80;;;;;;5049896;28;20448;-84
2022/09/13 02:47:12;;;;;;;7.57;4.13;;;20.00;97.00;;;;;;5039837;28;20471;-84
2022/09/13 02:49:56;;;;;;;4.53;4.13;;;20.20;96.90;;;;;;5052477;28;20471;-84
2022/09/13 02:52:38;;;;;;;4.80;4.40;;;20.30;96.60;;;;;;5049987;28;21016;-84
2022/09/13 02:55:17;;;;;;;4.80;4.30;;;20.20;96.50;;;;;;5052209;28;20468;-83
2022/09/13 02:58:08;;;;;;;5.00;4.50;;;20.00;96.70;;;;;;5056056;28;20452;-84
2022/09/13 03:00:36;;;;;;;5.20;4.70;;;20.00;97.10;;;;;;5051031;28;20541;-83
2022/09/13 03:03:07;;;;;;;4.13;3.73;;;20.10;97.20;;;;;;5057744;28;20921;-84
2022/09/13 03:05:33;;;;;;;6.40;4.50;;;20.10;96.90;;;;;;5060587;28;20462;-85
2022/09/13 03:08:01;;;;;;;4.50;4.10;;;20.10;96.70;;;;;;5053934;28;20467;-84
2022/09/13 03:10:39;;;;;;;7.00;4.37;;;20.00;96.70;;;;;;5052209;28;20571;-84
2022/09/13 03:13:51;;;;;;;3.80;3.50;;;20.00;96.50;;;;;;5073540;28;20529;-85
2022/09/13 03:16:27;;;;;;;3.70;3.50;;;19.80;96.50;;;;;;5041916;28;20502;-83
2022/09/13 03:19:21;;;;;;;4.47;4.07;;;19.70;97.10;;;;;;5062741;28;20502;-84
2022/09/13 03:22:25;;;;;;;4.50;4.10;;;19.60;97.30;;;;;;5065938;28;20460;-83
2022/09/13 03:25:08;;;;;;;4.53;4.13;;;19.40;97.60;;;;;;5063219;28;20482;-81
2022/09/13 03:27:56;;;;;;;4.10;3.70;;;19.20;98.20;;;;;;5088623;28;20429;-84
2022/09/13 03:30:23;;;;;;;4.70;4.20;;;19.60;98.60;;;;;;5070734;28;20460;-82
2022/09/13 03:33:10;;;;;;;5.03;4.23;;;19.70;98.30;;;;;;5077120;28;20480;-80
2022/09/13 03:36:00;;;;;;;4.10;3.80;;;19.90;97.80;;;;;;5072247;28;20444;-85
2022/09/13 03:38:36;;;;;;;4.93;3.83;;;19.90;97.20;;;;;;5073728;28;20437;-84
2022/09/13 03:41:14;;;;;;;4.50;4.10;;;19.70;97.40;;;;;;5073491;28;20499;-86
2022/09/13 03:43:57;;;;;;;4.23;3.87;;;19.70;97.30;;;;;;5089124;28;20464;-83
2022/09/13 03:46:28;;;;;;;4.20;3.80;;;19.50;97.50;;;;;;5075643;28;20479;-82
2022/09/13 03:48:59;;;;;;;4.80;4.40;;;19.40;97.80;;;;;;5064549;28;20452;-84
2022/09/13 03:51:26;;;;;;;6.30;4.60;;;19.50;97.70;;;;;;5060008;28;20452;-83
2022/09/13 03:53:59;;;;;;;4.60;4.20;;;19.80;97.50;;;;;;5054480;28;20483;-85
2022/09/13 03:56:26;;;;;;;5.53;4.97;;;19.70;97.10;;;;;;5057336;28;20456;-85
2022/09/13 03:58:53;;;;;;;5.93;4.53;;;19.60;97.60;;;;;;5059327;28;20440;-83
2022/09/13 04:01:22;;;;;;;4.20;3.90;;;19.80;97.40;;;;;;5068127;28;20464;-84
2022/09/13 04:03:50;;;;;;;3.73;3.43;;;19.80;97.00;;;;;;5057718;28;20608;-84
2022/09/13 04:06:21;;;;;;;4.30;3.80;;;19.70;97.00;;;;;;5072711;28;20471;-83
2022/09/13 04:08:48;;;;;;;5.07;3.30;;;19.60;97.10;;;;;;5059081;28;20491;-85
2022/09/13 04:11:15;;;;;;;4.83;4.43;;;19.50;97.40;;;;;;5057086;28;20501;-84
2022/09/13 04:13:42;;;;;;;3.97;3.67;;;19.40;97.30;;;;;;5057760;28;20484;-83
2022/09/13 04:16:09;;;;;;;4.70;3.97;;;19.40;97.50;;;;;;5059382;28;20486;-84
2022/09/13 04:18:36;;;;;;;4.50;3.67;;;19.30;97.50;;;;;;5069738;28;21011;-83
2022/09/13 04:21:03;;;;;;;4.03;3.70;;;19.30;97.40;;;;;;5060747;28;20482;-85
2022/09/13 04:23:30;;;;;;;3.80;3.50;;;19.30;97.40;;;;;;5057716;28;20464;-83
2022/09/13 04:26:02;;;;;;;5.57;4.30;;;19.30;97.50;;;;;;5056516;28;20470;-83
2022/09/13 04:28:30;;;;;;;5.67;4.30;;;19.40;97.50;;;;;;5053170;28;20452;-83
2022/09/13 04:31:00;;;;;;;4.60;4.20;;;19.60;97.30;;;;;;5060218;28;20908;-86
2022/09/13 04:33:27;;;;;;;4.10;3.73;;;19.70;96.90;;;;;;5055771;28;20484;-84
2022/09/13 04:35:59;;;;;;;5.07;4.20;;;19.90;96.70;;;;;;5066108;28;20495;-80
2022/09/13 04:38:27;;;;;;;4.17;3.77;;;19.90;96.00;;;;;;5058509;28;20514;-85
2022/09/13 04:40:54;;;;;;;5.23;3.93;;;19.70;96.10;;;;;;5060130;28;20472;-83
2022/09/13 04:43:21;;;;;;;4.50;4.10;;;19.60;96.40;;;;;;5058796;28;20483;-83
2022/09/13 04:45:48;;;;;;;4.67;4.27;;;19.70;96.70;;;;;;5055286;28;20440;-83
2022/09/13 04:48:15;;;;;;;5.10;4.10;;;19.70;96.90;;;;;;5056642;28;20537;-82
2022/09/13 04:50:42;;;;;;;5.50;4.23;;;19.70;96.80;;;;;;5070151;28;20818;-85
2022/09/13 04:53:09;;;;;;;4.53;4.13;;;19.80;96.70;;;;;;5057160;28;20512;-84
2022/09/13 04:55:36;;;;;;;4.00;3.70;;;20.00;96.00;;;;;;5067009;28;20460;-86
2022/09/13 04:58:17;;;;;;;4.33;3.60;;;19.90;95.90;;;;;;5056247;28;20453;-84
2022/09/13 05:00:48;;;;;;;5.10;4.60;;;19.90;95.60;;;;;;5049502;28;20550;-85
2022/09/13 05:03:17;;;;;;;4.70;4.30;;;20.00;95.50;;;;;;5066559;28;20602;-86
2022/09/13 05:05:46;;;;;;;3.90;3.60;;;20.00;95.30;;;;;;5055452;28;20465;-84
2022/09/13 05:08:20;;;;;;;4.10;3.73;;;20.00;95.40;;;;;;5057253;28;20457;-85
2022/09/13 05:10:47;;;;;;;7.50;4.43;;;19.90;95.40;;;;;;5052692;28;20547;-85
2022/09/13 05:13:17;;;;;;;5.67;3.80;;;19.70;95.40;;;;;;5073853;28;20592;-82
2022/09/13 05:15:55;;;;;;;4.50;4.10;;;19.50;95.80;;;;;;5057252;28;20467;-83
2022/09/13 05:18:37;;;;;;;4.00;3.50;;;19.70;95.80;;;;;;5061305;28;20824;-84
2022/09/13 05:21:15;;;;;;;4.33;3.97;;;19.70;95.60;;;;;;5073198;28;20503;-84
2022/09/13 05:23:53;;;;;;;4.93;3.40;;;19.60;95.70;;;;;;5055966;28;20452;-84
2022/09/13 05:26:22;;;;;;;5.47;4.33;;;19.60;96.00;;;;;;5058004;28;20890;-84
2022/09/13 05:28:53;;;;;;;4.47;4.13;;;19.80;95.80;;;;;;5070626;28;20461;-84
2022/09/13 05:31:23;;;;;;;6.07;4.40;;;19.80;95.50;;;;;;5054366;28;20469;-84
2022/09/13 05:34:00;;;;;;;5.03;4.40;;;19.90;95.40;;;;;;5057029;28;21140;-83
2022/09/13 05:36:32;;;;;;;4.73;4.33;;;19.90;95.40;;;;;;5073571;28;20510;-83
2022/09/13 05:39:21;;;;;;;3.90;3.60;;;19.80;95.50;;;;;;5052765;28;20465;-85
2022/09/13 05:42:07;;;;;;;10.00;4.30;;;19.70;96.00;;;;;;5051618;28;20564;-83
2022/09/13 05:44:36;;;;;;;4.30;3.90;;;19.90;96.20;;;;;;5064423;28;20472;-83
2022/09/13 05:47:05;;;;;;;5.13;4.60;;;19.90;96.30;;;;;;5052529;28;20491;-83
2022/09/13 05:49:36;;;;;;;4.60;4.10;;;19.70;96.40;;;;;;5048595;28;20480;-83
2022/09/13 05:52:28;;;;;;;4.27;3.57;;;19.70;96.40;;;;;;5058895;28;20460;-83
2022/09/13 05:54:59;;;;;;;4.40;3.60;;;19.50;96.90;;;;;;5050148;28;21086;-85
2022/09/13 05:58:08;;;;;;;4.50;4.10;;;19.50;97.20;;;;;;5059523;28;20463;-85
2022/09/13 06:00:38;;;;;;;4.27;3.87;;;19.60;96.70;;;;;;5064488;28;20470;-85
2022/09/13 06:03:09;;;;;;;5.07;3.90;;;19.40;97.20;;;;;;5069299;28;20590;-83
2022/09/13 06:05:40;;;;;;;5.73;4.33;;;19.20;97.70;;;;;;5090627;28;20452;-86
2022/09/13 06:08:11;;;;;;;6.67;4.57;;;19.50;97.80;;;;;;5069323;28;20460;-81
2022/09/13 06:10:41;;;;;;;5.30;4.23;;;19.50;97.40;;;;;;5070598;28;20476;-84
2022/09/13 06:13:08;;;;;;;4.57;4.10;;;19.50;97.40;;;;;;5070205;28;20457;-83
2022/09/13 06:15:47;;;;;;;4.27;3.87;;;19.60;97.10;;;;;;5071348;28;20452;-84
2022/09/13 06:18:17;;;;;;;4.30;3.90;;;19.70;97.20;;;;;;5071016;28;20448;-80
2022/09/13 06:20:51;;;;;;;6.33;4.70;;;19.60;97.20;;;;;;5070110;28;20529;-82
2022/09/13 06:23:20;;;;;;;5.90;3.63;;;19.50;97.30;;;;;;5071698;28;20449;-84
2022/09/13 06:25:50;;;;;;;4.70;4.30;;;19.40;97.50;;;;;;5067590;28;20441;-83
2022/09/13 06:28:17;;;;;;;4.73;4.33;;;19.60;97.80;;;;;;5065934;28;20467;-84
2022/09/13 06:30:47;;;;;;;4.13;3.83;;;19.70;97.40;;;;;;5059680;28;20501;-84
2022/09/13 06:33:24;;;;;;;8.03;4.10;;;19.80;97.40;;;;;;5063641;28;20485;-84
2022/09/13 06:35:54;;;;;;;4.70;3.83;;;19.60;97.50;;;;;;5076674;28;20448;-83
2022/09/13 06:38:25;;;;;;;4.93;3.67;;;19.70;97.80;;;;;;5062055;28;20465;-81
2022/09/13 06:41:17;;;;;;;7.30;4.50;;;19.60;98.00;;;;;;5083326;28;20957;-85
2022/09/13 06:43:56;;;;;;;4.70;4.30;;;19.70;98.50;;;;;;5053867;28;20460;-83
2022/09/13 06:46:24;;;;;;;4.57;4.17;;;19.80;98.20;;;;;;5071728;28;20487;-82
2022/09/13 06:48:57;;;;;;;4.77;4.27;;;20.00;98.00;;;;;;5057546;28;20488;-82
2022/09/13 06:51:25;;;;;;;4.73;4.33;;;20.10;97.50;;;;;;5058616;28;20744;-83
2022/09/13 06:54:04;;;;;;;8.67;4.97;;;20.00;97.40;;;;;;5061789;28;20469;-83
2022/09/13 06:56:36;;;;;;;4.50;4.10;;;20.00;97.40;;;;;;5054929;28;20539;-82
2022/09/13 06:59:12;;;;;;;3.90;3.60;;;19.90;97.60;;;;;;5057243;28;20475;-84
2022/09/13 07:01:45;;;;;;;4.37;3.97;;;19.90;97.50;;;;;;5056511;28;20451;-83
2022/09/13 07:04:15;;;;;;;5.93;4.50;;;19.80;97.70;;;;;;5051806;28;20579;-84
2022/09/13 07:06:46;;;;;;;5.70;3.87;;;19.90;97.70;;;;;;5054530;28;20455;-83
2022/09/13 07:09:25;;;;;;;5.70;4.20;;;19.80;97.70;;;;;;5050340;28;20661;-82
2022/09/13 07:11:55;;;;;;;7.17;4.37;;;19.90;97.70;;;;;;5050790;28;20537;-83
2022/09/13 07:14:30;;;;;;;4.13;3.53;;;19.90;97.30;;;;;;5069453;28;20471;-83
2022/09/13 07:17:00;;;;;;;5.17;4.40;;;20.00;97.40;;;;;;5053285;28;20437;-84
2022/09/13 07:19:36;;;;;;;11.27;4.60;;;20.10;97.30;;;;;;5056950;28;20478;-84
2022/09/13 07:22:03;;;;;;;4.40;3.57;;;20.30;96.60;;;;;;5060664;28;20473;-84
2022/09/13 07:24:32;;;;;;;5.93;5.03;;;20.40;96.50;;;;;;5050298;28;20484;-84
2022/09/13 07:27:02;;;;;;;4.30;3.90;;;20.30;96.50;;;;;;5060718;28;20532;-82
2022/09/13 07:29:29;;;;;;;6.80;3.90;;;20.20;96.70;;;;;;5067451;28;20471;-84
2022/09/13 07:32:00;;;;;;;4.50;4.10;;;20.20;97.00;;;;;;5073064;28;20437;-83
2022/09/13 07:34:26;;;;;;;9.93;4.50;;;20.60;96.50;;;;;;5069419;28;20502;-84
2022/09/13 07:36:56;;;;;;;5.83;3.90;;;20.80;96.00;;;;;;5062756;28;20464;-83
2022/09/13 07:39:23;;;;;;;7.00;4.00;;;20.60;96.00;;;;;;5074625;28;20551;-83
2022/09/13 07:41:52;;;;;;;4.37;3.97;;;21.10;95.30;;;;;;5064060;28;20448;-84
2022/09/13 07:44:22;;;;;;;4.50;4.10;;;21.20;95.00;;;;;;5060900;28;20440;-83
2022/09/13 07:46:52;;;;;;;8.67;4.17;;;21.00;95.30;;;;;;5064219;28;20536;-83
2022/09/13 07:49:19;;;;;;;8.87;5.13;;;21.30;95.10;;;;;;5064849;28;20468;-84
2022/09/13 07:51:54;;;;;;;5.07;4.20;;;21.60;94.50;;;;;;5048833;28;20457;-84
2022/09/13 07:54:26;;;;;;;5.63;4.20;;;21.70;94.40;;;;;;5078970;28;20486;-84
2022/09/13 07:56:59;;;;;;;5.23;3.90;;;22.00;94.00;;;;;;5055772;28;20478;-83
2022/09/13 07:59:28;;;;;;;5.97;4.20;;;22.10;93.50;;;;;;5065166;28;20507;-83
2022/09/13 08:02:10;;;;;;;5.43;4.03;;;22.10;93.20;;;;;;5063403;28;20444;-82
2022/09/13 08:04:43;;;;;;;5.93;4.03;;;22.00;93.50;;;;;;5064226;28;20853;-84
2022/09/13 08:07:13;;;;;;;4.37;4.00;;;22.10;93.30;;;;;;5065590;28;20444;-83
2022/09/13 08:09:45;;;;;;;8.07;4.53;;;22.20;93.10;;;;;;5071623;28;20468;-84
2022/09/13 08:12:14;;;;;;;5.50;3.83;;;22.10;93.10;;;;;;5061256;28;20465;-84
2022/09/13 08:14:48;;;;;;;4.67;4.27;;;22.30;92.90;;;;;;5060658;28;20484;-83
2022/09/13 08:17:29;;;;;;;5.97;4.23;;;22.50;92.80;;;;;;5056600;28;20444;-84
2022/09/13 08:20:06;;;;;;;5.80;4.63;;;22.60;92.20;;;;;;5059415;28;20468;-85
2022/09/13 08:22:50;;;;;;;9.83;4.10;;;22.60;92.30;;;;;;5054438;28;20460;-83
2022/09/13 08:25:26;;;;;;;5.33;3.90;;;22.50;92.60;;;;;;5058404;28;20506;-84
2022/09/13 08:28:08;;;;;;;7.00;3.97;;;22.80;92.10;;;;;;5066370;28;20451;-84
2022/09/13 08:30:53;;;;;;;5.00;3.93;;;22.80;91.40;;;;;;5050851;28;20486;-85
2022/09/13 08:33:29;;;;;;;5.03;3.80;;;23.10;91.10;;;;;;5062763;28;20459;-82
2022/09/13 08:36:12;;;;;;;5.23;4.70;;;23.20;90.50;;;;;;5062967;28;20468;-83
2022/09/13 08:38:56;;;;;;;5.80;4.40;;;23.20;90.90;;;;;;5063611;28;20448;-83
2022/09/13 08:41:51;;;;;;;4.60;4.20;;;23.60;90.00;;;;;;5061932;28;20448;-83
2022/09/13 08:44:27;;;;;;;4.90;4.27;;;23.60;89.50;;;;;;5069660;28;20448;-85
2022/09/13 08:47:21;;;;;;;4.70;3.67;;;23.50;90.40;;;;;;5060303;28;20510;-83
2022/09/13 08:50:14;;;;;;;4.20;3.20;;;23.60;89.90;;;;;;5060959;28;20498;-83
2022/09/13 08:53:25;;;;;;;5.60;4.80;;;23.60;88.50;;;;;;5062242;28;20470;-84
2022/09/13 08:56:08;;;;;;;4.57;4.17;;;23.70;88.90;;;;;;5066204;28;20474;-82
2022/09/13 08:58:55;;;;;;;4.43;3.93;;;24.00;88.20;;;;;;5076884;28;20444;-85
2022/09/13 09:02:03;;;;;;;6.17;4.30;;;24.00;87.00;;;;;;5053825;28;20478;-83
2022/09/13 09:04:48;;;;;;;7.37;4.40;;;24.10;86.80;;;;;;5050387;28;20452;-83
2022/09/13 09:08:02;;;;;;;;;;;;;;;;;;;;;
2022/09/13 09:10:56;;;;;;;5.67;3.83;;;24.40;85.30;;;;;;5062305;28;20472;-84
2022/09/13 09:13:37;;;;;;;4.40;3.80;;;24.40;85.10;;;;;;5058621;28;20457;-84
2022/09/13 09:16:41;;;;;;;6.40;3.87;;;24.20;85.20;;;;;;5060651;28;21384;-84
2022/09/13 09:19:33;;;;;;;7.40;4.50;;;24.40;85.40;;;;;;5061302;28;20452;-83
2022/09/13 09:22:39;;;;;;;6.70;4.17;;;25.10;83.20;;;;;;5059507;28;20456;-84
2022/09/13 09:25:19;;;;;;;4.13;3.70;;;25.00;82.20;;;;;;5055270;28;20471;-85
2022/09/13 09:27:52;;;;;;;16.43;14.73;;;25.30;80.80;;;;;;5075168;28;20456;-84
2022/09/13 09:31:17;;;;;;;4.00;3.67;;;25.10;80.80;;;;;;5060235;28;20468;-83
2022/09/13 09:34:25;;;;;;;7.93;5.77;;;25.10;80.40;;;;;;5022584;28;20433;-83
2022/09/13 09:37:41;;;;;;;4.93;3.80;;;25.60;79.60;;;;;;5061840;28;20459;-84
2022/09/13 09:40:19;;;;;;;6.90;4.87;;;25.60;78.70;;;;;;5057491;28;20508;-85
2022/09/13 09:43:38;;;;;;;5.97;3.87;;;26.30;76.40;;;;;;5060960;28;20465;-84
2022/09/13 09:46:24;;;;;;;4.20;3.60;;;27.30;72.20;;;;;;5057436;28;20528;-84
2022/09/13 09:55:44;;;;;;;4.90;3.40;;;28.20;64.30;;;;;;5057116;28;20508;-85
2022/09/13 09:58:19;;;;;;;3.80;3.50;;;28.90;63.30;;;;;;5061348;28;20456;-87
2022/09/13 10:01:00;;;;;;;4.77;3.37;;;29.80;58.80;;;;;;5062592;28;20473;-83
2022/09/13 10:03:54;;;;;;;3.40;3.00;;;30.10;57.40;;;;;;5078898;28;20456;-84
2022/09/13 10:06:33;;;;;;;2.63;2.43;;;29.90;57.00;;;;;;5062903;28;20451;-84
2022/09/13 10:09:27;;;;;;;4.50;2.30;;;29.80;56.50;;;;;;5064998;28;20468;-84
2022/09/13 10:12:04;;;;;;;3.93;2.90;;;31.00;55.60;;;;;;5067260;28;20464;-85
2022/09/13 10:14:47;;;;;;;2.60;2.40;;;31.80;53.20;;;;;;5071151;28;20575;-83
2022/09/13 10:17:27;;;;;;;4.03;2.67;;;32.80;50.50;;;;;;5067368;28;20475;-84
2022/09/13 10:20:20;;;;;;;4.30;2.30;;;32.70;49.80;;;;;;5059992;28;20468;-83
2022/09/13 10:23:20;;;;;;;4.93;2.00;;;31.30;51.30;;;;;;5058364;28;20468;-84
2022/09/13 10:26:18;;;;;;;2.90;2.60;;;31.80;52.20;;;;;;5058904;28;20480;-85
2022/09/13 10:29:05;;;;;;;2.60;2.40;;;32.60;49.50;;;;;;5074985;28;20482;-84
2022/09/13 10:32:02;;;;;;;2.67;2.47;;;32.20;50.30;;;;;;5079406;28;20435;-83
2022/09/13 10:34:40;;;;;;;2.90;2.30;;;31.80;50.50;;;;;;5073373;28;20478;-83
2022/09/13 10:37:34;;;;;;;2.90;2.17;;;31.00;52.20;;;;;;5060922;28;20436;-85
2022/09/13 10:40:11;;;;;;;3.83;2.20;;;30.80;52.60;;;;;;5055476;28;20472;-84
2022/09/13 10:42:38;;;;;;;3.80;2.10;;;30.80;52.80;;;;;;5059068;28;20546;-84
2022/09/13 10:45:10;;;;;;;3.63;2.00;;;30.40;53.30;;;;;;5060080;28;20452;-83
2022/09/13 10:48:17;;;;;;;5.37;3.00;;;30.00;54.20;;;;;;5068003;28;20448;-83
2022/09/13 10:51:09;;;;;;;2.30;1.90;;;29.70;54.60;;;;;;5067378;28;20514;-84
2022/09/13 10:53:46;;;;;;;2.47;2.23;;;29.30;55.90;;;;;;5072465;28;20467;-84
2022/09/13 10:56:31;;;;;;;3.13;2.43;;;28.80;56.90;;;;;;5075015;28;20479;-84
2022/09/13 10:59:28;;;;;;;4.27;3.30;;;28.50;57.60;;;;;;5058955;28;20482;-86
2022/09/13 11:02:27;;;;;;;2.67;1.80;;;27.80;58.90;;;;;;5049026;28;20461;-85
2022/09/13 11:05:49;;;;;;;4.10;2.40;;;27.70;58.90;;;;;;5056317;28;20567;-84
2022/09/13 11:08:35;;;;;;;;;;;;;;;;;;;;;
2022/09/13 11:11:33;;;;;;;2.50;2.30;;;27.70;59.80;;;;;;5055840;28;20578;-84
2022/09/13 11:14:24;;;;;;;2.33;1.50;;;28.50;58.60;;;;;;5053535;28;20536;-85
2022/09/13 11:17:35;;;;;;;2.47;1.40;;;28.90;57.10;;;;;;5064069;28;20471;-87
2022/09/13 11:20:34;;;;;;;2.40;1.90;;;28.70;57.00;;;;;;5058079;28;20873;-84
2022/09/13 11:23:09;;;;;;;2.20;2.00;;;28.60;57.70;;;;;;5059611;28;21376;-86
2022/09/13 11:26:04;;;;;;;3.57;1.87;;;28.40;57.80;;;;;;5076101;28;20507;-87
2022/09/13 11:28:57;;;;;;;2.30;2.10;;;28.10;58.20;;;;;;5063132;28;20435;-85
2022/09/13 11:32:01;;;;;;;3.53;2.17;;;27.80;58.90;;;;;;5050043;28;20484;-84
2022/09/13 11:34:44;;;;;;;2.70;2.20;;;27.70;58.30;;;;;;5059285;28;20456;-82
2022/09/13 11:37:43;;;;;;;2.20;1.93;;;27.60;58.70;;;;;;5058924;28;20448;-86
2022/09/13 11:40:22;;;;;;;2.90;1.70;;;28.10;58.10;;;;;;5059181;28;20469;-83
2022/09/13 11:43:21;;;;;;;3.10;1.80;;;28.10;58.10;;;;;;5056840;28;20441;-84
2022/09/13 11:46:13;;;;;;;1.80;1.70;;;28.20;58.30;;;;;;5071509;28;20477;-84
2022/09/13 11:49:04;;;;;;;2.03;1.83;;;28.40;57.70;;;;;;5069106;28;20468;-83
2022/09/13 11:51:31;;;;;;;2.80;1.70;;;29.20;56.70;;;;;;5053811;28;20453;-86
2022/09/13 11:54:54;;;;;;;2.90;1.50;;;29.80;54.80;;;;;;5083766;28;20499;-85
2022/09/13 11:57:54;;;;;;;3.33;1.87;;;29.90;54.30;;;;;;5059209;28;20457;-85
2022/09/13 12:00:54;;;;;;;3.03;1.97;;;30.00;54.00;;;;;;5029410;28;20842;-85
2022/09/13 12:03:54;;;;;;;2.80;2.27;;;30.90;52.60;;;;;;5067074;28;20452;-84
2022/09/13 12:06:32;;;;;;;2.10;1.40;;;31.90;50.50;;;;;;5062301;28;20436;-84
2022/09/13 12:09:28;;;;;;;1.47;1.37;;;31.80;50.00;;;;;;5064755;28;20525;-84
2022/09/13 12:12:07;;;;;;;1.37;1.27;;;31.80;49.30;;;;;;5082267;28;20503;-83
2022/09/13 12:14:59;;;;;;;2.43;1.30;;;31.60;48.90;;;;;;5064142;28;20502;-87
2022/09/13 12:17:46;;;;;;;1.60;1.50;;;31.40;49.60;;;;;;5080803;28;20441;-85
2022/09/13 12:20:48;;;;;;;1.60;1.20;;;31.20;49.60;;;;;;5075403;28;20464;-88
2022/09/13 12:23:42;;;;;;;1.43;1.30;;;31.00;50.30;;;;;;5073936;28;20464;-86
2022/09/13 12:26:22;;;;;;;1.83;1.73;;;30.90;50.70;;;;;;5038219;28;20479;-85
2022/09/13 12:29:00;;;;;;;3.23;1.20;;;31.00;50.50;;;;;;5058097;28;20463;-84
2022/09/13 12:31:39;;;;;;;1.60;1.33;;;31.00;50.20;;;;;;5060899;28;20484;-83
2022/09/13 12:34:44;;;;;;;1.50;1.40;;;30.90;50.20;;;;;;5074694;28;20448;-85
2022/09/13 12:37:40;;;;;;;3.07;1.70;;;30.90;50.50;;;;;;5062183;28;20459;-83
2022/09/13 12:40:46;;;;;;;1.93;1.40;;;30.90;50.10;;;;;;5058996;28;20480;-83
2022/09/13 12:43:55;;;;;;;2.33;1.57;;;31.50;49.10;;;;;;5056560;28;21021;-84
2022/09/13 12:46:52;;;;;;;2.47;1.50;;;31.50;49.20;;;;;;5063588;28;20476;-89
2022/09/13 12:50:15;;;;;;;1.60;1.50;;;31.40;49.50;;;;;;5064250;28;20473;-83
2022/09/13 12:53:43;;;;;;;1.77;1.53;;;30.80;49.90;;;;;;4997068;28;20426;-83
2022/09/13 12:57:26;;;;;;;1.80;1.63;;;30.50;50.90;;;;;;5067291;28;20476;-83
2022/09/13 13:00:32;;;;;;;1.47;1.37;;;30.70;51.20;;;;;;5032505;28;20477;-85
2022/09/13 13:04:07;;;;;;;1.63;1.23;;;31.30;50.70;;;;;;5082772;28;20433;-84
2022/09/13 13:07:05;;;;;;;2.20;1.80;;;31.00;50.10;;;;;;5055823;28;20508;-86
2022/09/13 13:09:53;;;;;;;1.60;1.50;;;30.90;50.30;;;;;;5076212;28;20480;-85
2022/09/13 13:16:58;;;;;;;1.87;1.60;;;31.70;48.20;;;;;;5038152;28;20507;-83
2022/09/13 13:19:47;;;;;;;2.73;1.50;;;32.00;48.30;;;;;;5021413;28;20556;-84
2022/09/13 13:22:42;;;;;;;1.50;1.40;;;31.70;48.10;;;;;;5033504;28;20819;-84
2022/09/13 13:25:59;;;;;;;2.43;2.00;;;31.00;49.40;;;;;;5048851;28;20474;-84
2022/09/13 13:28:50;;;;;;;3.47;1.80;;;30.70;50.30;;;;;;5057556;28;20468;-85
2022/09/13 13:31:34;;;;;;;2.40;1.87;;;30.70;50.20;;;;;;5047855;28;20471;-84
2022/09/13 13:34:24;;;;;;;2.30;1.60;;;30.10;50.90;;;;;;5041852;28;20456;-84
2022/09/13 13:37:09;;;;;;;1.83;1.60;;;29.80;51.40;;;;;;5025626;28;20513;-85
2022/09/13 13:40:14;;;;;;;2.40;2.20;;;29.50;51.80;;;;;;5037867;28;23017;-83
2022/09/13 13:43:40;;;;;;;1.70;1.60;;;29.40;52.50;;;;;;5037816;28;20452;-83
2022/09/13 13:46:27;;;;;;;2.20;1.57;;;30.00;51.80;;;;;;5037767;28;20456;-84
2022/09/13 13:49:53;;;;;;;1.73;1.60;;;29.70;52.00;;;;;;5041270;28;20456;-86
2022/09/13 13:52:24;;;;;;;1.83;1.73;;;29.50;52.50;;;;;;5054179;28;20548;-85
2022/09/13 13:54:59;;;;;;;4.70;2.37;;;29.40;52.50;;;;;;5040018;28;20992;-85
2022/09/13 13:58:12;;;;;;;2.17;2.00;;;29.30;53.00;;;;;;5041435;28;20460;-84
2022/09/13 14:00:51;;;;;;;1.70;1.50;;;29.40;53.10;;;;;;5029111;28;20538;-83
2022/09/13 14:03:51;;;;;;;2.60;1.90;;;29.50;53.10;;;;;;5040786;28;20470;-84
2022/09/13 14:07:02;;;;;;;1.70;1.60;;;29.60;52.70;;;;;;5041697;28;20440;-85
2022/09/13 14:10:09;;;;;;;2.07;1.60;;;29.90;52.70;;;;;;5040683;28;20533;-85
2022/09/13 14:12:57;;;;;;;1.87;1.77;;;30.00;52.20;;;;;;5042670;28;20461;-84
2022/09/13 14:15:34;;;;;;;5.23;1.83;;;29.80;52.20;;;;;;5041478;28;20481;-83